Shipshewana, Indiana
Current Conditions -  °F | °C
As of 9:14 AM on Saturday 20 Dec 2014 (Local Time) from KIRS Reporting Station
Haze Haze  
Wind Chill: 21°   Ceiling: Unl
Heat Index: 21°   Visibility: 4mi
Dew Point: 21°   Wind: 0mph
Humidity: 100%   Direction: NA
Pressure: 30.27"   Gusts: NA
Location:  41.67°N, 85.58°W
Report Text: KIRS 201414Z AUTO 00000KT 4SM BR CLR M06/M06 A3027 RMK AO2
Loading
Personal Weather Stations






























Interactive Weather Map New forecast layout! Learn more

10-Day Weather Forecast

Advertisements
Track Severe Weather on mobile